createdAt,value
2019-04-11T00:00:27.721Z,99.90
2019-04-11T00:03:00.837Z,99.90
2019-04-11T00:05:35.027Z,99.90
2019-04-11T00:08:08.057Z,99.90
2019-04-11T00:10:41.677Z,99.90
2019-04-11T00:13:23.375Z,99.90
2019-04-11T00:15:50.864Z,99.90
2019-04-11T00:18:24.964Z,99.90
2019-04-11T00:20:58.271Z,99.90
2019-04-11T00:23:32.306Z,99.90
2019-04-11T00:26:05.141Z,99.90
2019-04-11T00:28:39.543Z,99.90
2019-04-11T00:31:12.884Z,99.90
2019-04-11T00:33:46.682Z,99.90
2019-04-11T00:36:20.155Z,99.90
2019-04-11T00:38:53.862Z,99.90
2019-04-11T00:41:28.093Z,99.90
2019-04-11T00:44:00.922Z,99.90
2019-04-11T00:46:36.184Z,99.90
2019-04-11T00:49:10.270Z,99.90
2019-04-11T00:51:44.316Z,99.90
2019-04-11T00:54:16.703Z,99.90
2019-04-11T00:56:50.618Z,99.90
2019-04-11T00:59:24.621Z,99.90
2019-04-11T01:01:58.839Z,99.90
2019-04-11T01:04:31.362Z,99.90
2019-04-11T01:07:05.170Z,99.90
2019-04-11T01:09:40.128Z,99.90
2019-04-11T01:12:12.686Z,99.90
2019-04-11T01:14:46.898Z,99.90
2019-04-11T01:17:21.251Z,99.90
2019-04-11T01:19:55.288Z,99.90
2019-04-11T01:22:28.132Z,99.90
2019-04-11T01:25:02.153Z,99.90
2019-04-11T01:27:36.241Z,99.90
2019-04-11T01:30:09.740Z,99.90
2019-04-11T01:32:43.339Z,99.90
2019-04-11T01:35:17.261Z,99.90
2019-04-11T01:37:50.646Z,99.90
2019-04-11T01:40:25.481Z,99.90
2019-04-11T01:42:59.698Z,99.90
2019-04-11T01:45:33.737Z,99.90
2019-04-11T01:48:12.654Z,99.90
2019-04-11T01:50:47.107Z,99.90
2019-04-11T01:53:20.677Z,99.90
2019-04-11T01:55:54.360Z,99.90
2019-04-11T01:58:28.887Z,99.90
2019-04-11T02:01:04.215Z,99.90
2019-04-11T02:03:47.544Z,99.90
2019-04-11T02:06:20.083Z,99.90
2019-04-11T02:08:53.853Z,99.90
2019-04-11T02:11:27.730Z,99.90
2019-04-11T02:14:10.661Z,99.90
2019-04-11T02:16:34.928Z,99.90
2019-04-11T02:19:10.163Z,99.90
2019-04-11T02:21:44.111Z,99.90
2019-04-11T02:24:32.079Z,99.90
2019-04-11T02:27:12.623Z,99.90
2019-04-11T02:29:46.769Z,99.90
2019-04-11T02:32:21.280Z,99.90
2019-04-11T02:34:57.174Z,99.90
2019-04-11T02:37:29.224Z,99.90
2019-04-11T02:40:01.028Z,99.90
2019-04-11T02:42:35.083Z,99.90
2019-04-11T02:45:22.639Z,99.90
2019-04-11T02:47:45.727Z,99.90
2019-04-11T02:50:17.131Z,99.90
2019-04-11T02:52:49.839Z,99.90
2019-04-11T02:55:23.013Z,99.90
2019-04-11T02:57:57.625Z,99.90
2019-04-11T03:00:31.030Z,99.90
2019-04-11T03:03:05.691Z,99.90
2019-04-11T03:05:39.316Z,99.90
2019-04-11T03:08:13.682Z,99.90
2019-04-11T03:10:45.903Z,99.90
2019-04-11T03:13:20.899Z,99.90
2019-04-11T03:16:07.151Z,99.90
2019-04-11T03:18:47.731Z,99.90
2019-04-11T03:21:06.502Z,99.90
2019-04-11T03:23:35.458Z,99.90
2019-04-11T03:26:09.700Z,99.90
2019-04-11T03:28:45.124Z,99.90
2019-04-11T03:31:50.278Z,99.90
2019-04-11T03:39:15.264Z,99.90
2019-04-11T03:41:50.447Z,99.90
2019-04-11T03:44:15.986Z,99.90
2019-04-11T03:46:52.675Z,99.90
2019-04-11T03:49:25.074Z,99.90
2019-04-11T03:51:48.026Z,99.90
2019-04-11T03:54:21.184Z,99.90
2019-04-11T03:56:54.689Z,99.90
2019-04-11T03:59:29.035Z,99.90
2019-04-11T04:02:03.268Z,99.90
2019-04-11T04:04:37.096Z,99.90
2019-04-11T04:07:12.437Z,99.90
2019-04-11T04:09:44.068Z,99.90
2019-04-11T04:12:18.538Z,99.90
2019-04-11T04:14:55.542Z,99.90
2019-04-11T04:17:35.423Z,99.90
2019-04-11T04:20:27.035Z,99.90
2019-04-11T04:23:16.666Z,99.90
2019-04-11T04:25:51.491Z,99.90
2019-04-11T04:28:23.863Z,99.90
2019-04-11T04:30:57.967Z,99.90
2019-04-11T04:33:32.638Z,99.90
2019-04-11T04:36:07.691Z,99.90
2019-04-11T04:38:39.692Z,99.90
2019-04-11T04:41:23.919Z,99.90
2019-04-11T04:43:45.886Z,99.90
2019-04-11T04:46:34.750Z,99.90
2019-04-11T04:48:54.076Z,99.90
2019-04-11T04:51:28.842Z,99.90
2019-04-11T04:54:01.460Z,99.90
2019-04-11T04:56:36.882Z,99.90
2019-04-11T04:59:10.043Z,99.90
2019-04-11T05:01:44.279Z,99.90
2019-04-11T05:04:16.587Z,99.90
2019-04-11T05:06:53.012Z,99.90
2019-04-11T05:09:25.612Z,99.90
2019-04-11T05:11:58.283Z,99.90
2019-04-11T05:14:32.077Z,99.90
2019-04-11T05:17:06.773Z,99.90
2019-04-11T05:19:40.461Z,99.90
2019-04-11T05:22:15.046Z,99.90
2019-04-11T05:24:48.896Z,99.90
2019-04-11T05:27:22.951Z,99.90
2019-04-11T05:29:56.429Z,99.90
2019-04-11T05:32:31.267Z,99.90
2019-04-11T05:35:04.814Z,99.90
2019-04-11T05:37:39.722Z,99.90
2019-04-11T05:40:13.339Z,99.90
2019-04-11T05:42:53.445Z,99.90
2019-04-11T05:45:24.185Z,99.90
2019-04-11T05:47:57.093Z,99.90
2019-04-11T05:50:29.495Z,99.90
2019-04-11T05:53:03.880Z,99.90
2019-04-11T05:55:41.429Z,99.90
2019-04-11T05:58:14.229Z,99.90
2019-04-11T06:00:59.586Z,99.90
2019-04-11T06:03:32.334Z,99.90
2019-04-11T06:06:06.516Z,99.90
2019-04-11T06:08:39.877Z,99.90
2019-04-11T06:11:23.648Z,99.90
2019-04-11T06:13:56.822Z,99.90
2019-04-11T06:16:39.953Z,99.90
2019-04-11T06:19:10.991Z,99.90
2019-04-11T06:21:46.608Z,99.90
2019-04-11T06:24:27.991Z,99.90
2019-04-11T06:27:04.050Z,99.90
2019-04-11T06:29:54.915Z,99.90
2019-04-11T06:32:34.149Z,99.90
2019-04-11T06:35:09.127Z,99.90
2019-04-11T06:37:48.418Z,99.90
2019-04-11T06:40:24.857Z,99.90
2019-04-11T06:43:03.740Z,99.90
2019-04-11T06:45:59.096Z,99.90
2019-04-11T06:51:28.170Z,99.90
2019-04-11T06:54:08.454Z,99.90
2019-04-11T06:56:41.278Z,99.90
2019-04-11T06:59:14.714Z,99.90
2019-04-11T07:01:48.963Z,99.90
2019-04-11T07:04:22.474Z,99.90
2019-04-11T07:06:56.099Z,99.90
2019-04-11T07:09:32.974Z,99.90
2019-04-11T07:12:10.871Z,99.90
2019-04-11T07:14:45.519Z,99.90
2019-04-11T07:17:24.087Z,99.90
2019-04-11T07:20:13.024Z,99.90
2019-04-11T07:22:51.923Z,99.90
2019-04-11T07:25:28.966Z,99.90
2019-04-11T07:28:19.407Z,99.90
2019-04-11T07:31:00.366Z,99.90
2019-04-11T07:33:51.895Z,99.90
2019-04-11T07:36:31.626Z,99.90
2019-04-11T07:52:32.677Z,99.90
2019-04-11T07:55:04.660Z,99.90
2019-04-11T07:57:49.264Z,99.90
2019-04-11T08:00:45.689Z,99.90
2019-04-11T08:03:14.838Z,99.90
2019-04-11T08:06:09.172Z,99.90
2019-04-11T08:08:49.407Z,99.90
2019-04-11T08:11:23.430Z,99.90
2019-04-11T08:14:04.283Z,99.90
2019-04-11T08:16:53.563Z,99.90
2019-04-11T08:19:44.064Z,99.90
2019-04-11T08:22:37.750Z,99.90
2019-04-11T08:25:26.256Z,99.90
2019-04-11T08:28:02.611Z,99.90
2019-04-11T08:30:48.904Z,99.90
2019-04-11T08:33:22.464Z,99.90
2019-04-11T08:35:58.348Z,99.90
2019-04-11T08:38:32.233Z,99.90
2019-04-11T08:41:07.332Z,99.90
2019-04-11T08:43:41.473Z,99.90
2019-04-11T08:46:15.000Z,99.90
2019-04-11T08:48:51.242Z,99.90
2019-04-11T08:51:23.904Z,99.90
2019-04-11T08:54:19.436Z,99.90
2019-04-11T08:56:52.043Z,99.90
2019-04-11T08:59:31.534Z,99.90
2019-04-11T09:02:05.118Z,99.90
2019-04-11T09:04:46.449Z,99.60
2019-04-11T09:07:38.064Z,98.40
2019-04-11T09:10:16.368Z,97.10
2019-04-11T09:12:53.047Z,95.10
2019-04-11T09:15:32.950Z,92.50
2019-04-11T09:18:09.166Z,91.50
2019-04-11T09:21:00.542Z,91.10
2019-04-11T09:23:34.210Z,90.50
2019-04-11T09:26:28.855Z,90.10
2019-04-11T09:29:02.605Z,90.80
2019-04-11T09:45:09.195Z,80.30
2019-04-11T09:48:12.472Z,78.70
2019-04-11T09:50:42.965Z,76.00
2019-04-11T09:53:16.618Z,75.60
2019-04-11T09:58:42.197Z,76.00
2019-04-11T10:01:20.279Z,75.80
2019-04-11T10:03:53.211Z,74.30
2019-04-11T10:06:32.268Z,70.00
2019-04-11T10:09:05.818Z,69.10
2019-04-11T10:11:42.032Z,67.20
2019-04-11T10:14:15.528Z,65.90
2019-04-11T10:16:54.312Z,65.30
2019-04-11T10:19:31.810Z,64.00
2019-04-11T10:24:58.912Z,60.00
2019-04-11T10:27:38.627Z,61.60
2019-04-11T10:30:17.392Z,60.70
2019-04-11T10:33:06.668Z,61.10
2019-04-11T10:35:42.812Z,56.40
2019-04-11T10:38:16.227Z,56.40
2019-04-11T10:40:56.382Z,55.90
2019-04-11T10:43:32.055Z,56.70
2019-04-11T10:46:07.069Z,57.20
2019-04-11T10:48:44.992Z,57.10
2019-04-11T10:51:17.889Z,58.30
2019-04-11T10:53:51.652Z,59.40
2019-04-11T10:56:26.469Z,60.20
2019-04-11T10:58:59.607Z,60.50
2019-04-11T11:01:52.681Z,64.70
2019-04-11T11:04:27.482Z,64.80
2019-04-11T11:07:00.146Z,64.70
2019-04-11T11:09:38.921Z,62.20
2019-04-11T11:12:23.760Z,62.70
2019-04-11T11:15:04.084Z,64.30
2019-04-11T11:18:25.212Z,65.90
2019-04-11T11:20:54.015Z,62.60
2019-04-11T11:23:25.050Z,61.40
2019-04-11T11:26:22.843Z,56.70
2019-04-11T11:29:00.518Z,56.70
2019-04-11T11:31:38.555Z,54.90
2019-04-11T11:34:17.339Z,54.20
2019-04-11T11:37:01.132Z,55.90
2019-04-11T11:39:51.119Z,57.90
2019-04-11T11:42:30.384Z,58.20
2019-04-11T11:45:19.593Z,59.50
2019-04-11T11:48:08.864Z,61.70
2019-04-11T11:50:39.117Z,63.50
2019-04-11T11:53:29.876Z,65.40
2019-04-11T11:56:02.366Z,63.50
2019-04-11T12:01:29.832Z,66.70
2019-04-11T12:04:23.877Z,67.80
2019-04-11T12:06:58.902Z,68.40
2019-04-11T12:09:31.967Z,67.50
2019-04-11T12:12:08.139Z,66.30
2019-04-11T12:14:47.885Z,69.00
2019-04-11T12:17:22.507Z,68.60
2019-04-11T12:20:13.452Z,69.80
2019-04-11T12:22:44.364Z,69.60
2019-04-11T12:25:18.851Z,71.60
2019-04-11T12:28:04.158Z,71.60
2019-04-11T12:30:37.384Z,70.50
2019-04-11T12:33:21.384Z,72.10
2019-04-11T12:35:57.859Z,72.10
2019-04-11T12:38:44.935Z,74.10
2019-04-11T12:41:20.208Z,72.20
2019-04-11T12:43:53.125Z,72.20
2019-04-11T12:46:34.562Z,72.80
2019-04-11T12:49:27.018Z,72.90
2019-04-11T12:52:06.579Z,72.10
2019-04-11T12:54:40.900Z,72.10
2019-04-11T12:57:30.480Z,74.70
2019-04-11T13:03:02.494Z,74.20
2019-04-11T13:05:36.200Z,70.80
2019-04-11T13:08:26.549Z,71.90
2019-04-11T13:11:00.164Z,71.40
2019-04-11T13:13:34.897Z,73.80
2019-04-11T13:16:12.302Z,74.30
2019-04-11T13:18:44.363Z,74.20
2019-04-11T13:21:18.052Z,73.00
2019-04-11T13:24:01.686Z,71.60
2019-04-11T13:26:52.103Z,71.80
2019-04-11T13:29:26.504Z,71.90
2019-04-11T13:32:17.719Z,72.40
2019-04-11T13:34:58.758Z,72.50
2019-04-11T13:37:38.261Z,71.40
2019-04-11T13:40:12.652Z,71.20
2019-04-11T13:42:56.370Z,70.50
2019-04-11T13:45:30.017Z,69.60
2019-04-11T13:48:04.530Z,70.80
2019-04-11T13:50:38.119Z,69.90
2019-04-11T13:53:17.491Z,70.10
2019-04-11T13:55:51.248Z,71.30
2019-04-11T13:58:44.113Z,70.00
2019-04-11T14:01:17.962Z,70.00
2019-04-11T14:04:00.484Z,69.20
2019-04-11T14:06:34.198Z,68.40
2019-04-11T14:09:17.750Z,69.50
2019-04-11T14:11:52.068Z,71.20
2019-04-11T14:14:26.468Z,69.40
2019-04-11T14:17:00.819Z,69.30
2019-04-11T14:19:41.582Z,69.20
2019-04-11T14:22:14.175Z,69.00
2019-04-11T14:24:51.252Z,69.20
2019-04-11T14:27:25.049Z,68.80
2019-04-11T14:30:13.662Z,67.20
2019-04-11T14:32:49.111Z,66.30
2019-04-11T14:35:28.671Z,67.90
2019-04-11T14:38:08.021Z,68.60
2019-04-11T14:40:48.136Z,69.00
2019-04-11T14:43:25.438Z,68.70
2019-04-11T14:46:04.608Z,68.70
2019-04-11T14:48:37.870Z,68.40
2019-04-11T14:51:10.930Z,69.80
2019-04-11T14:53:50.752Z,68.50
2019-04-11T14:56:27.233Z,68.80
2019-04-11T15:02:01.928Z,67.60
2019-04-11T15:04:43.644Z,67.10
2019-04-11T15:07:15.483Z,67.40
2019-04-11T15:09:52.376Z,67.40
2019-04-11T15:12:27.745Z,66.90
2019-04-11T15:15:07.876Z,66.60
2019-04-11T15:17:41.475Z,66.60
2019-04-11T15:20:17.987Z,66.60
2019-04-11T15:23:01.424Z,66.60
2019-04-11T15:25:40.744Z,66.20
2019-04-11T15:28:30.453Z,65.40
2019-04-11T15:31:23.995Z,65.30
2019-04-11T15:34:12.630Z,64.40
2019-04-11T15:36:47.050Z,65.50
2019-04-11T15:39:44.259Z,64.70
2019-04-11T15:42:11.597Z,65.50
2019-04-11T15:58:12.529Z,64.80
2019-04-11T16:00:49.408Z,64.40
2019-04-11T16:03:24.609Z,64.90
2019-04-11T16:06:01.614Z,64.40
2019-04-11T16:08:33.355Z,65.10
2019-04-11T16:11:22.116Z,65.90
2019-04-11T16:14:11.574Z,65.90
2019-04-11T16:16:50.899Z,66.30
2019-04-11T16:19:30.907Z,67.40
2019-04-11T16:22:10.110Z,67.50
2019-04-11T16:24:44.673Z,65.70
2019-04-11T16:27:23.790Z,66.60
2019-04-11T16:29:57.315Z,66.60
2019-04-11T16:32:30.925Z,67.60
2019-04-11T16:35:12.143Z,67.70
2019-04-11T16:37:47.705Z,66.80
2019-04-11T16:40:23.659Z,66.90
2019-04-11T16:42:59.069Z,67.60
2019-04-11T16:45:47.212Z,67.80
2019-04-11T16:48:20.928Z,66.70
2019-04-11T16:50:54.664Z,66.80
2019-04-11T16:53:28.200Z,66.30
2019-04-11T16:56:01.904Z,65.90
2019-04-11T16:58:35.471Z,65.20
2019-04-11T17:01:09.150Z,66.30
2019-04-11T17:03:44.063Z,66.20
2019-04-11T17:06:17.432Z,66.40
2019-04-11T17:08:51.763Z,66.40
2019-04-11T17:11:27.066Z,66.60
2019-04-11T17:13:58.904Z,65.50
2019-04-11T17:16:32.662Z,65.40
2019-04-11T17:19:07.126Z,66.30
2019-04-11T17:21:43.485Z,66.30
2019-04-11T17:24:16.772Z,66.20
2019-04-11T17:26:47.988Z,65.30
2019-04-11T17:29:24.731Z,66.00
2019-04-11T17:31:56.627Z,66.90
2019-04-11T17:34:32.437Z,67.30
2019-04-11T17:37:04.201Z,67.20
2019-04-11T17:39:37.706Z,68.50
2019-04-11T17:42:13.356Z,68.50
2019-04-11T17:44:45.030Z,69.10
2019-04-11T17:47:18.572Z,70.20
2019-04-11T17:49:52.110Z,71.20
2019-04-11T17:52:25.880Z,70.40
2019-04-11T17:55:00.296Z,70.10
2019-04-11T17:57:34.054Z,71.20
2019-04-11T18:00:07.714Z,71.30
2019-04-11T18:02:42.060Z,71.70
2019-04-11T18:05:17.187Z,72.00
2019-04-11T18:07:50.049Z,71.90
2019-04-11T18:10:25.519Z,71.30
2019-04-11T18:13:00.269Z,71.50
2019-04-11T18:15:31.187Z,71.90
2019-04-11T18:18:05.322Z,72.80
2019-04-11T18:20:36.993Z,72.50
2019-04-11T18:23:10.350Z,71.30
2019-04-11T18:25:44.005Z,71.40
2019-04-11T18:28:21.652Z,72.20
2019-04-11T18:30:53.761Z,70.80
2019-04-11T18:33:25.083Z,71.60
2019-04-11T18:36:01.844Z,71.10
2019-04-11T18:38:32.691Z,70.60
2019-04-11T18:41:06.104Z,72.10
2019-04-11T18:43:39.738Z,72.10
2019-04-11T18:46:14.015Z,72.40
2019-04-11T18:48:48.435Z,72.10
2019-04-11T18:51:23.192Z,72.00
2019-04-11T18:53:55.688Z,72.00
2019-04-11T18:56:30.251Z,72.10
2019-04-11T18:59:04.364Z,72.00
2019-04-11T19:01:39.841Z,73.20
2019-04-11T19:04:12.619Z,73.40
2019-04-11T19:06:45.368Z,74.50
2019-04-11T19:09:19.022Z,73.80
2019-04-11T19:11:52.690Z,73.40
2019-04-11T19:14:26.451Z,73.50
2019-04-11T19:16:59.929Z,74.20
2019-04-11T19:19:34.326Z,75.00
2019-04-11T19:22:07.941Z,75.00
2019-04-11T19:24:42.422Z,75.20
2019-04-11T19:27:16.541Z,74.60
2019-04-11T19:29:48.913Z,75.30
2019-04-11T19:32:22.617Z,75.60
2019-04-11T19:34:57.060Z,76.40
2019-04-11T19:37:31.407Z,77.50
2019-04-11T19:40:06.795Z,76.90
2019-04-11T19:42:41.233Z,77.90
2019-04-11T19:45:16.917Z,77.90
2019-04-11T19:47:51.579Z,77.70
2019-04-11T19:50:23.765Z,77.10
2019-04-11T19:52:57.322Z,77.00
2019-04-11T19:58:27.020Z,76.80
2019-04-11T20:01:00.769Z,77.90
2019-04-11T20:03:34.356Z,78.40
2019-04-11T20:06:08.151Z,78.70
2019-04-11T20:08:41.693Z,78.90
2019-04-11T20:11:15.346Z,78.40
2019-04-11T20:13:49.099Z,78.10
2019-04-11T20:16:22.927Z,78.40
2019-04-11T20:18:57.682Z,78.00
2019-04-11T20:21:30.372Z,78.30
2019-04-11T20:24:03.896Z,79.50
2019-04-11T20:26:37.594Z,80.10
2019-04-11T20:29:11.315Z,80.30
2019-04-11T20:31:45.129Z,80.50
2019-04-11T20:34:27.411Z,79.60
2019-04-11T20:36:52.947Z,79.80
2019-04-11T20:39:26.633Z,80.10
2019-04-11T20:42:00.917Z,78.80
2019-04-11T20:44:34.738Z,78.80
2019-04-11T20:47:08.391Z,79.30
2019-04-11T20:49:46.871Z,79.10
2019-04-11T20:52:20.591Z,80.00
2019-04-11T20:54:54.142Z,80.90
2019-04-11T20:57:27.762Z,80.50
2019-04-11T21:00:01.337Z,80.10
2019-04-11T21:02:35.862Z,80.30
2019-04-11T21:05:09.815Z,80.10
2019-04-11T21:07:43.569Z,80.30
2019-04-11T21:10:17.101Z,80.80
2019-04-11T21:12:50.802Z,82.00
2019-04-11T21:15:24.595Z,81.20
2019-04-11T21:17:58.408Z,81.10
2019-04-11T21:20:32.127Z,81.80
2019-04-11T21:23:06.706Z,82.50
2019-04-11T21:25:40.345Z,82.50
2019-04-11T21:28:14.137Z,83.10
2019-04-11T21:30:47.948Z,83.20
2019-04-11T21:33:21.483Z,84.30
2019-04-11T21:35:55.017Z,84.30
2019-04-11T21:38:30.873Z,84.90
2019-04-11T21:41:05.923Z,84.80
2019-04-11T21:43:36.850Z,85.40
2019-04-11T21:46:09.862Z,86.60
2019-04-11T21:48:43.461Z,87.50
2019-04-11T21:51:17.895Z,89.20
2019-04-11T21:53:51.572Z,89.20
2019-04-11T21:56:25.136Z,89.40
2019-04-11T21:58:58.842Z,90.10
2019-04-11T22:01:32.487Z,90.40
2019-04-11T22:04:06.173Z,90.80
2019-04-11T22:06:40.667Z,91.60
2019-04-11T22:09:14.214Z,91.60
2019-04-11T22:11:47.879Z,91.90
2019-04-11T22:14:21.587Z,92.50
2019-04-11T22:16:55.186Z,93.00
2019-04-11T22:19:29.298Z,93.70
2019-04-11T22:22:02.839Z,93.90
2019-04-11T22:24:36.588Z,94.40
2019-04-11T22:27:10.353Z,94.50
2019-04-11T22:29:43.931Z,94.90
2019-04-11T22:32:17.569Z,95.20
2019-04-11T22:34:51.320Z,95.80
2019-04-11T22:37:27.786Z,96.30
2019-04-11T22:40:01.824Z,97.00
2019-04-11T22:42:32.934Z,97.20
2019-04-11T22:45:08.364Z,97.50
2019-04-11T22:47:40.167Z,97.90
2019-04-11T22:50:13.735Z,98.30
2019-04-11T22:52:47.239Z,98.50
2019-04-11T22:55:20.769Z,98.90
2019-04-11T22:57:54.818Z,99.30
2019-04-11T23:00:28.516Z,99.60
2019-04-11T23:03:07.640Z,99.90
2019-04-11T23:05:41.310Z,99.90
2019-04-11T23:08:18.777Z,99.90
2019-04-11T23:10:48.750Z,99.90
2019-04-11T23:13:22.544Z,99.90
2019-04-11T23:15:56.113Z,99.90
2019-04-11T23:18:29.830Z,99.90
2019-04-11T23:21:03.521Z,99.90
2019-04-11T23:23:37.126Z,99.90
2019-04-11T23:26:10.719Z,99.90
2019-04-11T23:28:46.784Z,99.90
2019-04-11T23:31:20.171Z,99.90
2019-04-11T23:33:52.542Z,99.90
2019-04-11T23:36:25.335Z,99.90
2019-04-11T23:38:59.083Z,99.90
2019-04-11T23:41:32.755Z,99.90
2019-04-11T23:44:06.521Z,99.90
2019-04-11T23:46:40.144Z,99.90
2019-04-11T23:49:13.948Z,99.90
2019-04-11T23:51:47.489Z,99.90
2019-04-11T23:54:23.299Z,99.90
2019-04-11T23:56:54.794Z,99.90
2019-04-11T23:59:31.701Z,99.90
